sensor_id;sensor_type;location;lat;lon;timestamp;temperature;humidity
37460;DHT22;23318;50.966;5.284;2023-08-01T00:00:25;16.90;99.90
37460;DHT22;23318;50.966;5.284;2023-08-01T00:02:51;16.90;99.90
37460;DHT22;23318;50.966;5.284;2023-08-01T00:05:16;16.90;99.90
37460;DHT22;23318;50.966;5.284;2023-08-01T00:07:42;16.90;99.90
37460;DHT22;23318;50.966;5.284;2023-08-01T00:10:08;17.00;99.90
37460;DHT22;23318;50.966;5.284;2023-08-01T00:12:34;16.80;99.90
37460;DHT22;23318;50.966;5.284;2023-08-01T00:15:00;16.80;99.90
37460;DHT22;23318;50.966;5.284;2023-08-01T00:17:25;16.80;99.90
37460;DHT22;23318;50.966;5.284;2023-08-01T00:19:51;16.90;99.90
37460;DHT22;23318;50.966;5.284;2023-08-01T00:22:17;16.80;99.90
37460;DHT22;23318;50.966;5.284;2023-08-01T00:24:42;16.80;99.90
37460;DHT22;23318;50.966;5.284;2023-08-01T00:27:08;16.70;99.90
37460;DHT22;23318;50.966;5.284;2023-08-01T00:29:35;16.70;99.90
37460;DHT22;23318;50.966;5.284;2023-08-01T00:32:01;16.80;99.90
37460;DHT22;23318;50.966;5.284;2023-08-01T00:34:27;16.70;99.90
37460;DHT22;23318;50.966;5.284;2023-08-01T00:36:53;16.70;99.90
37460;DHT22;23318;50.966;5.284;2023-08-01T00:39:18;16.70;99.90
37460;DHT22;23318;50.966;5.284;2023-08-01T00:41:44;16.60;99.90
37460;DHT22;23318;50.966;5.284;2023-08-01T00:44:10;16.50;99.90
37460;DHT22;23318;50.966;5.284;2023-08-01T00:46:37;16.60;99.90
37460;DHT22;23318;50.966;5.284;2023-08-01T00:49:03;16.50;99.90
37460;DHT22;23318;50.966;5.284;2023-08-01T00:51:29;16.60;99.90
37460;DHT22;23318;50.966;5.284;2023-08-01T00:53:55;16.60;99.90
37460;DHT22;23318;50.966;5.284;2023-08-01T00:56:22;16.50;99.90
37460;DHT22;23318;50.966;5.284;2023-08-01T00:58:47;16.40;99.90
37460;DHT22;23318;50.966;5.284;2023-08-01T01:01:13;16.40;99.90
37460;DHT22;23318;50.966;5.284;2023-08-01T01:03:39;16.30;99.90
37460;DHT22;23318;50.966;5.284;2023-08-01T01:06:21;16.40;99.90
37460;DHT22;23318;50.966;5.284;2023-08-01T01:08:48;16.30;99.90
37460;DHT22;23318;50.966;5.284;2023-08-01T01:11:14;16.30;99.90
37460;DHT22;23318;50.966;5.284;2023-08-01T01:13:40;16.30;99.90
37460;DHT22;23318;50.966;5.284;2023-08-01T01:16:06;16.30;99.90
37460;DHT22;23318;50.966;5.284;2023-08-01T01:18:31;16.20;99.90
37460;DHT22;23318;50.966;5.284;2023-08-01T01:20:57;16.10;99.90
37460;DHT22;23318;50.966;5.284;2023-08-01T01:23:24;16.10;99.90
37460;DHT22;23318;50.966;5.284;2023-08-01T01:25:51;16.10;99.90
37460;DHT22;23318;50.966;5.284;2023-08-01T01:28:18;16.20;99.90
37460;DHT22;23318;50.966;5.284;2023-08-01T01:30:45;16.10;99.90
37460;DHT22;23318;50.966;5.284;2023-08-01T01:33:11;16.10;99.90
37460;DHT22;23318;50.966;5.284;2023-08-01T01:35:37;15.90;99.90
37460;DHT22;23318;50.966;5.284;2023-08-01T01:38:03;16.00;99.90
37460;DHT22;23318;50.966;5.284;2023-08-01T01:40:33;15.90;99.90
37460;DHT22;23318;50.966;5.284;2023-08-01T01:43:00;15.90;99.90
37460;DHT22;23318;50.966;5.284;2023-08-01T01:45:26;15.80;99.90
37460;DHT22;23318;50.966;5.284;2023-08-01T01:47:52;15.80;99.90
37460;DHT22;23318;50.966;5.284;2023-08-01T01:50:18;15.80;99.90
37460;DHT22;23318;50.966;5.284;2023-08-01T01:52:44;15.80;99.90
37460;DHT22;23318;50.966;5.284;2023-08-01T01:55:10;15.90;99.90
37460;DHT22;23318;50.966;5.284;2023-08-01T01:57:36;15.90;99.90
37460;DHT22;23318;50.966;5.284;2023-08-01T02:00:05;15.90;99.90
37460;DHT22;23318;50.966;5.284;2023-08-01T02:02:31;15.90;99.90
37460;DHT22;23318;50.966;5.284;2023-08-01T02:04:57;15.90;99.90
37460;DHT22;23318;50.966;5.284;2023-08-01T02:07:23;15.80;99.90
37460;DHT22;23318;50.966;5.284;2023-08-01T02:09:48;15.80;99.90
37460;DHT22;23318;50.966;5.284;2023-08-01T02:12:14;15.90;99.90
37460;DHT22;23318;50.966;5.284;2023-08-01T02:14:40;15.80;99.90
37460;DHT22;23318;50.966;5.284;2023-08-01T02:17:06;15.60;99.90
37460;DHT22;23318;50.966;5.284;2023-08-01T02:19:32;15.50;99.90
37460;DHT22;23318;50.966;5.284;2023-08-01T02:21:58;15.50;99.90
37460;DHT22;23318;50.966;5.284;2023-08-01T02:24:24;15.50;99.90
37460;DHT22;23318;50.966;5.284;2023-08-01T02:26:50;15.50;99.90
37460;DHT22;23318;50.966;5.284;2023-08-01T02:29:16;15.50;99.90
37460;DHT22;23318;50.966;5.284;2023-08-01T02:31:42;15.60;99.90
37460;DHT22;23318;50.966;5.284;2023-08-01T02:34:08;15.60;99.90
37460;DHT22;23318;50.966;5.284;2023-08-01T02:36:33;15.60;99.90
37460;DHT22;23318;50.966;5.284;2023-08-01T02:38:59;15.60;99.90
37460;DHT22;23318;50.966;5.284;2023-08-01T02:41:25;15.40;99.90
37460;DHT22;23318;50.966;5.284;2023-08-01T02:43:51;15.40;99.90
37460;DHT22;23318;50.966;5.284;2023-08-01T02:46:16;15.50;99.90
37460;DHT22;23318;50.966;5.284;2023-08-01T02:48:42;15.50;99.90
37460;DHT22;23318;50.966;5.284;2023-08-01T02:51:08;15.50;99.90
37460;DHT22;23318;50.966;5.284;2023-08-01T02:53:35;15.40;99.90
37460;DHT22;23318;50.966;5.284;2023-08-01T02:56:01;15.40;99.90
37460;DHT22;23318;50.966;5.284;2023-08-01T02:58:27;15.30;99.90
37460;DHT22;23318;50.966;5.284;2023-08-01T03:00:53;15.50;99.90
37460;DHT22;23318;50.966;5.284;2023-08-01T03:03:18;15.60;99.90
37460;DHT22;23318;50.966;5.284;2023-08-01T03:05:44;15.50;99.90
37460;DHT22;23318;50.966;5.284;2023-08-01T03:08:10;15.50;99.90
37460;DHT22;23318;50.966;5.284;2023-08-01T03:10:35;15.40;99.90
37460;DHT22;23318;50.966;5.284;2023-08-01T03:13:01;15.40;99.90
37460;DHT22;23318;50.966;5.284;2023-08-01T03:15:27;15.50;99.90
37460;DHT22;23318;50.966;5.284;2023-08-01T03:17:53;15.50;99.90
37460;DHT22;23318;50.966;5.284;2023-08-01T03:20:19;15.50;99.90
37460;DHT22;23318;50.966;5.284;2023-08-01T03:22:44;15.60;99.90
37460;DHT22;23318;50.966;5.284;2023-08-01T03:25:10;15.60;99.90
37460;DHT22;23318;50.966;5.284;2023-08-01T03:27:36;15.60;99.90
37460;DHT22;23318;50.966;5.284;2023-08-01T03:30:03;15.60;99.90
37460;DHT22;23318;50.966;5.284;2023-08-01T03:32:34;15.50;99.90
37460;DHT22;23318;50.966;5.284;2023-08-01T03:35:00;15.60;99.90
37460;DHT22;23318;50.966;5.284;2023-08-01T03:37:26;15.60;99.90
37460;DHT22;23318;50.966;5.284;2023-08-01T03:39:52;15.50;99.90
37460;DHT22;23318;50.966;5.284;2023-08-01T03:42:17;15.50;99.90
37460;DHT22;23318;50.966;5.284;2023-08-01T03:44:43;15.40;99.90
37460;DHT22;23318;50.966;5.284;2023-08-01T03:47:08;15.40;99.90
37460;DHT22;23318;50.966;5.284;2023-08-01T03:49:34;15.50;99.90
37460;DHT22;23318;50.966;5.284;2023-08-01T03:52:00;15.50;99.90
37460;DHT22;23318;50.966;5.284;2023-08-01T03:54:26;15.50;99.90
37460;DHT22;23318;50.966;5.284;2023-08-01T03:56:52;15.40;99.90
37460;DHT22;23318;50.966;5.284;2023-08-01T03:59:18;15.50;99.90
37460;DHT22;23318;50.966;5.284;2023-08-01T04:01:43;15.40;99.90
37460;DHT22;23318;50.966;5.284;2023-08-01T04:04:09;15.40;99.90
37460;DHT22;23318;50.966;5.284;2023-08-01T04:06:35;15.40;99.90
37460;DHT22;23318;50.966;5.284;2023-08-01T04:09:01;15.30;99.90
37460;DHT22;23318;50.966;5.284;2023-08-01T04:11:27;15.30;99.90
37460;DHT22;23318;50.966;5.284;2023-08-01T04:13:55;15.30;99.90
37460;DHT22;23318;50.966;5.284;2023-08-01T04:16:21;15.30;99.90
37460;DHT22;23318;50.966;5.284;2023-08-01T04:18:47;15.30;99.90
37460;DHT22;23318;50.966;5.284;2023-08-01T04:21:16;15.30;99.90
37460;DHT22;23318;50.966;5.284;2023-08-01T04:23:41;15.30;99.90
37460;DHT22;23318;50.966;5.284;2023-08-01T04:26:07;15.20;99.90
37460;DHT22;23318;50.966;5.284;2023-08-01T04:28:34;15.30;99.90
37460;DHT22;23318;50.966;5.284;2023-08-01T04:31:00;15.10;99.90
37460;DHT22;23318;50.966;5.284;2023-08-01T04:33:25;15.20;99.90
37460;DHT22;23318;50.966;5.284;2023-08-01T04:35:51;15.20;99.90
37460;DHT22;23318;50.966;5.284;2023-08-01T04:38:17;15.10;99.90
37460;DHT22;23318;50.966;5.284;2023-08-01T04:40:43;15.10;99.90
37460;DHT22;23318;50.966;5.284;2023-08-01T04:43:09;15.20;99.90
37460;DHT22;23318;50.966;5.284;2023-08-01T04:45:35;15.20;99.90
37460;DHT22;23318;50.966;5.284;2023-08-01T04:48:00;15.10;99.90
37460;DHT22;23318;50.966;5.284;2023-08-01T04:50:26;15.20;99.90
37460;DHT22;23318;50.966;5.284;2023-08-01T04:52:51;15.20;99.90
37460;DHT22;23318;50.966;5.284;2023-08-01T04:55:17;15.10;99.90
37460;DHT22;23318;50.966;5.284;2023-08-01T04:57:43;15.20;99.90
37460;DHT22;23318;50.966;5.284;2023-08-01T05:00:10;15.20;99.90
37460;DHT22;23318;50.966;5.284;2023-08-01T05:02:36;15.20;99.90
37460;DHT22;23318;50.966;5.284;2023-08-01T05:05:01;15.20;99.90
37460;DHT22;23318;50.966;5.284;2023-08-01T05:07:27;15.30;99.90
37460;DHT22;23318;50.966;5.284;2023-08-01T05:09:53;15.30;99.90
37460;DHT22;23318;50.966;5.284;2023-08-01T05:12:18;15.20;99.90
37460;DHT22;23318;50.966;5.284;2023-08-01T05:14:44;15.20;99.90
37460;DHT22;23318;50.966;5.284;2023-08-01T05:17:10;15.20;99.90
37460;DHT22;23318;50.966;5.284;2023-08-01T05:19:35;15.20;99.90
37460;DHT22;23318;50.966;5.284;2023-08-01T05:22:01;15.20;99.90
37460;DHT22;23318;50.966;5.284;2023-08-01T05:24:27;15.20;99.90
37460;DHT22;23318;50.966;5.284;2023-08-01T05:26:52;15.30;99.90
37460;DHT22;23318;50.966;5.284;2023-08-01T05:29:18;15.40;99.90
37460;DHT22;23318;50.966;5.284;2023-08-01T05:31:44;15.40;99.90
37460;DHT22;23318;50.966;5.284;2023-08-01T05:34:09;15.60;99.90
37460;DHT22;23318;50.966;5.284;2023-08-01T05:36:35;15.50;99.90
37460;DHT22;23318;50.966;5.284;2023-08-01T05:39:02;15.50;99.90
37460;DHT22;23318;50.966;5.284;2023-08-01T05:41:28;15.50;99.90
37460;DHT22;23318;50.966;5.284;2023-08-01T05:43:54;15.50;99.90
37460;DHT22;23318;50.966;5.284;2023-08-01T05:46:19;15.60;99.90
37460;DHT22;23318;50.966;5.284;2023-08-01T05:48:45;15.70;99.90
37460;DHT22;23318;50.966;5.284;2023-08-01T05:51:11;15.70;99.90
37460;DHT22;23318;50.966;5.284;2023-08-01T05:53:36;15.80;99.90
37460;DHT22;23318;50.966;5.284;2023-08-01T05:56:02;15.60;99.90
37460;DHT22;23318;50.966;5.284;2023-08-01T05:58:30;15.60;99.90
37460;DHT22;23318;50.966;5.284;2023-08-01T06:00:56;15.70;99.90
37460;DHT22;23318;50.966;5.284;2023-08-01T06:03:22;15.80;99.90
37460;DHT22;23318;50.966;5.284;2023-08-01T06:05:48;15.80;99.90
37460;DHT22;23318;50.966;5.284;2023-08-01T06:08:14;15.90;99.90
37460;DHT22;23318;50.966;5.284;2023-08-01T06:10:41;16.10;99.90
37460;DHT22;23318;50.966;5.284;2023-08-01T06:13:07;16.10;99.90
37460;DHT22;23318;50.966;5.284;2023-08-01T06:15:33;16.00;99.90
37460;DHT22;23318;50.966;5.284;2023-08-01T06:17:59;16.00;99.90
37460;DHT22;23318;50.966;5.284;2023-08-01T06:20:24;16.00;99.90
37460;DHT22;23318;50.966;5.284;2023-08-01T06:22:50;16.00;99.90
37460;DHT22;23318;50.966;5.284;2023-08-01T06:25:16;15.90;99.90
37460;DHT22;23318;50.966;5.284;2023-08-01T06:27:41;15.90;99.90
37460;DHT22;23318;50.966;5.284;2023-08-01T06:30:07;16.00;99.90
37460;DHT22;23318;50.966;5.284;2023-08-01T06:32:33;16.10;99.90
37460;DHT22;23318;50.966;5.284;2023-08-01T06:34:59;16.20;99.90
37460;DHT22;23318;50.966;5.284;2023-08-01T06:37:24;16.10;99.90
37460;DHT22;23318;50.966;5.284;2023-08-01T06:39:50;16.20;99.90
37460;DHT22;23318;50.966;5.284;2023-08-01T06:42:16;16.30;99.90
37460;DHT22;23318;50.966;5.284;2023-08-01T06:44:42;16.40;99.90
37460;DHT22;23318;50.966;5.284;2023-08-01T06:47:07;16.40;99.90
37460;DHT22;23318;50.966;5.284;2023-08-01T06:49:33;16.50;99.90
37460;DHT22;23318;50.966;5.284;2023-08-01T06:51:59;16.50;99.90
37460;DHT22;23318;50.966;5.284;2023-08-01T06:54:24;16.50;99.90
37460;DHT22;23318;50.966;5.284;2023-08-01T06:56:50;16.40;99.90
37460;DHT22;23318;50.966;5.284;2023-08-01T06:59:16;16.30;99.90
37460;DHT22;23318;50.966;5.284;2023-08-01T07:01:43;16.30;99.90
37460;DHT22;23318;50.966;5.284;2023-08-01T07:04:13;16.30;99.90
37460;DHT22;23318;50.966;5.284;2023-08-01T07:06:39;16.40;99.90
37460;DHT22;23318;50.966;5.284;2023-08-01T07:09:05;16.40;99.90
37460;DHT22;23318;50.966;5.284;2023-08-01T07:11:31;16.40;99.90
37460;DHT22;23318;50.966;5.284;2023-08-01T07:13:57;16.40;99.90
37460;DHT22;23318;50.966;5.284;2023-08-01T07:16:23;16.40;99.90
37460;DHT22;23318;50.966;5.284;2023-08-01T07:18:49;16.60;99.90
37460;DHT22;23318;50.966;5.284;2023-08-01T07:21:16;16.70;99.90
37460;DHT22;23318;50.966;5.284;2023-08-01T07:23:41;16.70;99.90
37460;DHT22;23318;50.966;5.284;2023-08-01T07:26:07;16.70;99.90
37460;DHT22;23318;50.966;5.284;2023-08-01T07:28:33;16.80;99.90
37460;DHT22;23318;50.966;5.284;2023-08-01T07:31:06;17.00;99.90
37460;DHT22;23318;50.966;5.284;2023-08-01T07:33:33;17.20;99.90
37460;DHT22;23318;50.966;5.284;2023-08-01T07:35:59;17.30;99.90
37460;DHT22;23318;50.966;5.284;2023-08-01T07:38:24;17.50;99.90
37460;DHT22;23318;50.966;5.284;2023-08-01T07:40:52;17.50;99.90
37460;DHT22;23318;50.966;5.284;2023-08-01T07:43:18;17.60;99.90
37460;DHT22;23318;50.966;5.284;2023-08-01T07:45:45;17.50;99.90
37460;DHT22;23318;50.966;5.284;2023-08-01T07:48:10;17.70;99.90
37460;DHT22;23318;50.966;5.284;2023-08-01T07:50:36;17.80;99.90
37460;DHT22;23318;50.966;5.284;2023-08-01T07:53:02;18.00;99.90
37460;DHT22;23318;50.966;5.284;2023-08-01T07:55:27;18.00;99.90
37460;DHT22;23318;50.966;5.284;2023-08-01T07:57:53;17.90;99.90
37460;DHT22;23318;50.966;5.284;2023-08-01T08:00:19;18.10;99.90
37460;DHT22;23318;50.966;5.284;2023-08-01T08:02:45;18.00;99.90
37460;DHT22;23318;50.966;5.284;2023-08-01T08:05:11;18.10;99.90
37460;DHT22;23318;50.966;5.284;2023-08-01T08:07:37;18.30;99.90
37460;DHT22;23318;50.966;5.284;2023-08-01T08:10:04;18.20;99.90
37460;DHT22;23318;50.966;5.284;2023-08-01T08:12:30;18.10;99.90
37460;DHT22;23318;50.966;5.284;2023-08-01T08:14:56;18.20;99.90
37460;DHT22;23318;50.966;5.284;2023-08-01T08:17:22;18.30;99.90
37460;DHT22;23318;50.966;5.284;2023-08-01T08:19:47;18.40;99.90
37460;DHT22;23318;50.966;5.284;2023-08-01T08:22:13;18.20;99.90
37460;DHT22;23318;50.966;5.284;2023-08-01T08:24:38;18.40;99.90
37460;DHT22;23318;50.966;5.284;2023-08-01T08:27:04;18.50;99.90
37460;DHT22;23318;50.966;5.284;2023-08-01T08:29:32;18.70;99.90
37460;DHT22;23318;50.966;5.284;2023-08-01T08:31:58;18.70;99.90
37460;DHT22;23318;50.966;5.284;2023-08-01T08:34:24;18.40;99.90
37460;DHT22;23318;50.966;5.284;2023-08-01T08:36:49;18.30;99.90
37460;DHT22;23318;50.966;5.284;2023-08-01T08:39:18;18.30;99.90
37460;DHT22;23318;50.966;5.284;2023-08-01T08:41:49;18.60;99.90
37460;DHT22;23318;50.966;5.284;2023-08-01T08:44:16;19.10;99.90
37460;DHT22;23318;50.966;5.284;2023-08-01T08:46:43;19.10;99.90
37460;DHT22;23318;50.966;5.284;2023-08-01T08:49:10;19.10;99.90
37460;DHT22;23318;50.966;5.284;2023-08-01T08:51:37;19.00;99.90
37460;DHT22;23318;50.966;5.284;2023-08-01T08:54:07;19.00;99.90
37460;DHT22;23318;50.966;5.284;2023-08-01T08:56:34;19.00;99.90
37460;DHT22;23318;50.966;5.284;2023-08-01T08:59:00;18.90;99.90
37460;DHT22;23318;50.966;5.284;2023-08-01T09:01:26;18.80;99.90
37460;DHT22;23318;50.966;5.284;2023-08-01T09:03:52;19.00;99.90
37460;DHT22;23318;50.966;5.284;2023-08-01T09:06:25;18.90;99.90
37460;DHT22;23318;50.966;5.284;2023-08-01T09:09:10;18.80;99.90
37460;DHT22;23318;50.966;5.284;2023-08-01T09:11:48;18.90;99.90
37460;DHT22;23318;50.966;5.284;2023-08-01T09:14:14;19.20;99.90
37460;DHT22;23318;50.966;5.284;2023-08-01T09:16:41;19.60;99.90
37460;DHT22;23318;50.966;5.284;2023-08-01T09:19:08;19.70;99.90
37460;DHT22;23318;50.966;5.284;2023-08-01T09:21:35;19.90;99.90
37460;DHT22;23318;50.966;5.284;2023-08-01T09:24:17;19.90;99.90
37460;DHT22;23318;50.966;5.284;2023-08-01T09:26:44;19.50;99.90
37460;DHT22;23318;50.966;5.284;2023-08-01T09:29:10;19.30;99.90
37460;DHT22;23318;50.966;5.284;2023-08-01T09:31:41;19.70;99.90
37460;DHT22;23318;50.966;5.284;2023-08-01T09:34:19;19.80;99.90
37460;DHT22;23318;50.966;5.284;2023-08-01T09:36:45;19.60;99.90
37460;DHT22;23318;50.966;5.284;2023-08-01T09:39:19;19.30;99.90
37460;DHT22;23318;50.966;5.284;2023-08-01T09:41:46;19.50;99.90
37460;DHT22;23318;50.966;5.284;2023-08-01T09:44:19;19.40;99.90
37460;DHT22;23318;50.966;5.284;2023-08-01T09:46:55;19.40;99.90
37460;DHT22;23318;50.966;5.284;2023-08-01T09:49:21;19.20;99.90
37460;DHT22;23318;50.966;5.284;2023-08-01T09:51:48;19.40;99.90
37460;DHT22;23318;50.966;5.284;2023-08-01T09:54:16;19.70;99.90
37460;DHT22;23318;50.966;5.284;2023-08-01T09:56:44;20.20;99.90
37460;DHT22;23318;50.966;5.284;2023-08-01T09:59:11;20.30;99.90
37460;DHT22;23318;50.966;5.284;2023-08-01T10:01:38;20.60;99.90
37460;DHT22;23318;50.966;5.284;2023-08-01T10:04:04;20.70;99.90
37460;DHT22;23318;50.966;5.284;2023-08-01T10:06:34;20.70;99.90
37460;DHT22;23318;50.966;5.284;2023-08-01T10:09:02;20.50;99.90
37460;DHT22;23318;50.966;5.284;2023-08-01T10:11:30;20.80;99.90
37460;DHT22;23318;50.966;5.284;2023-08-01T10:13:59;20.80;99.90
37460;DHT22;23318;50.966;5.284;2023-08-01T10:16:25;20.90;99.90
37460;DHT22;23318;50.966;5.284;2023-08-01T10:18:52;20.50;99.90
37460;DHT22;23318;50.966;5.284;2023-08-01T10:21:19;20.40;99.90
37460;DHT22;23318;50.966;5.284;2023-08-01T10:23:46;20.60;99.90
37460;DHT22;23318;50.966;5.284;2023-08-01T10:26:13;20.60;99.90
37460;DHT22;23318;50.966;5.284;2023-08-01T10:28:40;20.80;99.90
37460;DHT22;23318;50.966;5.284;2023-08-01T10:33:34;21.40;99.90
37460;DHT22;23318;50.966;5.284;2023-08-01T10:36:00;21.60;99.90
37460;DHT22;23318;50.966;5.284;2023-08-01T10:38:25;21.30;99.90
37460;DHT22;23318;50.966;5.284;2023-08-01T10:40:51;21.60;99.90
37460;DHT22;23318;50.966;5.284;2023-08-01T10:43:21;21.70;99.90
37460;DHT22;23318;50.966;5.284;2023-08-01T10:45:47;21.80;99.90
37460;DHT22;23318;50.966;5.284;2023-08-01T10:48:13;22.10;99.90
37460;DHT22;23318;50.966;5.284;2023-08-01T10:50:39;22.10;99.90
37460;DHT22;23318;50.966;5.284;2023-08-01T10:53:09;21.40;99.90
37460;DHT22;23318;50.966;5.284;2023-08-01T10:55:53;21.30;99.90
37460;DHT22;23318;50.966;5.284;2023-08-01T10:58:19;21.60;99.90
37460;DHT22;23318;50.966;5.284;2023-08-01T11:00:44;21.60;99.90
37460;DHT22;23318;50.966;5.284;2023-08-01T11:03:10;21.80;99.90
37460;DHT22;23318;50.966;5.284;2023-08-01T11:05:37;21.70;99.90
37460;DHT22;23318;50.966;5.284;2023-08-01T11:08:03;21.70;99.90
37460;DHT22;23318;50.966;5.284;2023-08-01T11:10:31;22.00;99.90
37460;DHT22;23318;50.966;5.284;2023-08-01T11:12:57;22.00;99.90
37460;DHT22;23318;50.966;5.284;2023-08-01T11:15:23;21.80;99.90
37460;DHT22;23318;50.966;5.284;2023-08-01T11:17:53;21.70;99.90
37460;DHT22;23318;50.966;5.284;2023-08-01T11:20:21;21.90;99.90
37460;DHT22;23318;50.966;5.284;2023-08-01T11:23:00;21.90;99.90
37460;DHT22;23318;50.966;5.284;2023-08-01T11:30:34;22.30;99.90
37460;DHT22;23318;50.966;5.284;2023-08-01T11:33:00;22.10;99.90
37460;DHT22;23318;50.966;5.284;2023-08-01T11:35:28;22.30;99.90
37460;DHT22;23318;50.966;5.284;2023-08-01T11:37:54;22.20;99.90
37460;DHT22;23318;50.966;5.284;2023-08-01T11:40:20;22.20;99.90
37460;DHT22;23318;50.966;5.284;2023-08-01T11:42:50;21.80;99.90
37460;DHT22;23318;50.966;5.284;2023-08-01T11:45:19;21.70;99.90
37460;DHT22;23318;50.966;5.284;2023-08-01T11:47:47;22.10;99.90
37460;DHT22;23318;50.966;5.284;2023-08-01T11:50:13;22.00;99.90
37460;DHT22;23318;50.966;5.284;2023-08-01T11:52:39;22.30;99.90
37460;DHT22;23318;50.966;5.284;2023-08-01T11:55:05;22.90;99.90
37460;DHT22;23318;50.966;5.284;2023-08-01T11:57:31;23.70;99.90
37460;DHT22;23318;50.966;5.284;2023-08-01T11:59:57;23.10;99.90
37460;DHT22;23318;50.966;5.284;2023-08-01T12:02:24;22.70;99.90
37460;DHT22;23318;50.966;5.284;2023-08-01T12:04:50;23.00;99.90
37460;DHT22;23318;50.966;5.284;2023-08-01T12:07:16;23.80;99.90
37460;DHT22;23318;50.966;5.284;2023-08-01T12:09:43;23.50;99.90
37460;DHT22;23318;50.966;5.284;2023-08-01T12:12:09;22.70;99.90
37460;DHT22;23318;50.966;5.284;2023-08-01T12:14:41;22.10;99.90
37460;DHT22;23318;50.966;5.284;2023-08-01T12:17:07;22.20;99.90
37460;DHT22;23318;50.966;5.284;2023-08-01T12:19:32;21.80;99.90
37460;DHT22;23318;50.966;5.284;2023-08-01T12:21:59;21.50;99.90
37460;DHT22;23318;50.966;5.284;2023-08-01T12:24:25;22.00;99.90
37460;DHT22;23318;50.966;5.284;2023-08-01T12:26:51;21.90;99.90
37460;DHT22;23318;50.966;5.284;2023-08-01T12:29:17;22.10;99.90
37460;DHT22;23318;50.966;5.284;2023-08-01T12:31:42;22.00;99.90
37460;DHT22;23318;50.966;5.284;2023-08-01T12:34:08;21.70;99.90
37460;DHT22;23318;50.966;5.284;2023-08-01T12:36:34;21.70;99.90
37460;DHT22;23318;50.966;5.284;2023-08-01T12:38:59;21.50;99.90
37460;DHT22;23318;50.966;5.284;2023-08-01T12:41:25;21.20;99.90
37460;DHT22;23318;50.966;5.284;2023-08-01T12:43:51;20.70;99.90
37460;DHT22;23318;50.966;5.284;2023-08-01T12:46:16;21.00;99.90
37460;DHT22;23318;50.966;5.284;2023-08-01T12:48:43;21.80;99.90
37460;DHT22;23318;50.966;5.284;2023-08-01T12:51:09;23.30;99.90
37460;DHT22;23318;50.966;5.284;2023-08-01T12:53:35;24.80;99.80
37460;DHT22;23318;50.966;5.284;2023-08-01T12:56:00;26.90;98.20
37460;DHT22;23318;50.966;5.284;2023-08-01T12:58:26;26.00;97.60
37460;DHT22;23318;50.966;5.284;2023-08-01T13:00:53;25.20;97.70
37460;DHT22;23318;50.966;5.284;2023-08-01T13:03:19;24.70;98.40
37460;DHT22;23318;50.966;5.284;2023-08-01T13:05:45;24.20;98.90
37460;DHT22;23318;50.966;5.284;2023-08-01T13:08:11;23.70;98.80
37460;DHT22;23318;50.966;5.284;2023-08-01T13:10:38;23.10;99.50
37460;DHT22;23318;50.966;5.284;2023-08-01T13:13:03;23.10;99.00
37460;DHT22;23318;50.966;5.284;2023-08-01T13:15:29;22.50;99.40
37460;DHT22;23318;50.966;5.284;2023-08-01T13:17:55;22.00;99.70
37460;DHT22;23318;50.966;5.284;2023-08-01T13:20:21;22.30;99.90
37460;DHT22;23318;50.966;5.284;2023-08-01T13:22:49;22.20;99.90
37460;DHT22;23318;50.966;5.284;2023-08-01T13:25:16;22.20;99.90
37460;DHT22;23318;50.966;5.284;2023-08-01T13:27:42;22.20;99.90
37460;DHT22;23318;50.966;5.284;2023-08-01T13:30:08;22.00;99.90
37460;DHT22;23318;50.966;5.284;2023-08-01T13:32:34;21.60;99.90
37460;DHT22;23318;50.966;5.284;2023-08-01T13:35:00;21.20;99.90
37460;DHT22;23318;50.966;5.284;2023-08-01T13:37:26;20.90;99.90
37460;DHT22;23318;50.966;5.284;2023-08-01T13:39:52;20.70;99.90
37460;DHT22;23318;50.966;5.284;2023-08-01T13:42:18;20.80;99.90
37460;DHT22;23318;50.966;5.284;2023-08-01T13:44:43;21.00;99.90
37460;DHT22;23318;50.966;5.284;2023-08-01T13:47:09;21.30;99.90
37460;DHT22;23318;50.966;5.284;2023-08-01T13:49:35;21.30;99.90
37460;DHT22;23318;50.966;5.284;2023-08-01T13:52:01;20.90;99.90
37460;DHT22;23318;50.966;5.284;2023-08-01T13:54:26;21.00;99.90
37460;DHT22;23318;50.966;5.284;2023-08-01T13:56:52;21.10;99.90
37460;DHT22;23318;50.966;5.284;2023-08-01T13:59:19;21.30;99.90
37460;DHT22;23318;50.966;5.284;2023-08-01T14:01:45;21.50;99.90
37460;DHT22;23318;50.966;5.284;2023-08-01T14:04:11;21.40;99.90
37460;DHT22;23318;50.966;5.284;2023-08-01T14:06:40;21.50;99.90
37460;DHT22;23318;50.966;5.284;2023-08-01T14:09:09;22.70;99.40
37460;DHT22;23318;50.966;5.284;2023-08-01T14:11:36;23.60;98.70
37460;DHT22;23318;50.966;5.284;2023-08-01T14:14:02;23.30;98.60
37460;DHT22;23318;50.966;5.284;2023-08-01T14:16:28;23.30;98.90
37460;DHT22;23318;50.966;5.284;2023-08-01T14:18:54;23.20;98.70
37460;DHT22;23318;50.966;5.284;2023-08-01T14:21:20;24.10;98.10
37460;DHT22;23318;50.966;5.284;2023-08-01T14:23:45;24.90;97.90
37460;DHT22;23318;50.966;5.284;2023-08-01T14:26:11;24.30;98.10
37460;DHT22;23318;50.966;5.284;2023-08-01T14:28:36;23.20;98.90
37460;DHT22;23318;50.966;5.284;2023-08-01T14:31:03;22.60;99.00
37460;DHT22;23318;50.966;5.284;2023-08-01T14:33:29;22.50;99.10
37460;DHT22;23318;50.966;5.284;2023-08-01T14:35:55;22.00;99.30
37460;DHT22;23318;50.966;5.284;2023-08-01T14:38:21;22.00;99.30
37460;DHT22;23318;50.966;5.284;2023-08-01T14:40:47;21.70;99.70
37460;DHT22;23318;50.966;5.284;2023-08-01T14:43:12;21.70;99.80
37460;DHT22;23318;50.966;5.284;2023-08-01T14:45:39;21.80;99.70
37460;DHT22;23318;50.966;5.284;2023-08-01T14:48:06;21.50;99.40
37460;DHT22;23318;50.966;5.284;2023-08-01T14:50:31;21.30;99.60
37460;DHT22;23318;50.966;5.284;2023-08-01T14:52:57;20.90;99.60
37460;DHT22;23318;50.966;5.284;2023-08-01T14:55:22;20.80;99.90
37460;DHT22;23318;50.966;5.284;2023-08-01T14:57:48;20.60;99.90
37460;DHT22;23318;50.966;5.284;2023-08-01T15:00:15;20.60;99.90
37460;DHT22;23318;50.966;5.284;2023-08-01T15:02:41;20.30;99.90
37460;DHT22;23318;50.966;5.284;2023-08-01T15:05:07;20.20;99.90
37460;DHT22;23318;50.966;5.284;2023-08-01T15:07:33;20.20;99.90
37460;DHT22;23318;50.966;5.284;2023-08-01T15:09:58;20.20;99.90
37460;DHT22;23318;50.966;5.284;2023-08-01T15:12:24;20.40;99.90
37460;DHT22;23318;50.966;5.284;2023-08-01T15:14:52;20.60;99.90
37460;DHT22;23318;50.966;5.284;2023-08-01T15:17:18;20.70;99.90
37460;DHT22;23318;50.966;5.284;2023-08-01T15:19:44;20.80;99.90
37460;DHT22;23318;50.966;5.284;2023-08-01T15:22:10;20.60;99.90
37460;DHT22;23318;50.966;5.284;2023-08-01T15:24:35;20.50;99.90
37460;DHT22;23318;50.966;5.284;2023-08-01T15:27:01;20.30;99.90
37460;DHT22;23318;50.966;5.284;2023-08-01T15:29:27;20.20;99.90
37460;DHT22;23318;50.966;5.284;2023-08-01T15:31:52;20.00;99.90